Pliny, West Virginia
Current Conditions -  °F | °C
As of 11:15 PM on Tuesday 21 Oct 2014 (Local Time) from K3I2 Reporting Station
Broken Clouds Broken Clouds  
Wind Chill: 48°   Ceiling: 4900
Heat Index: 48°   Visibility: 10mi
Dew Point: 43°   Wind: 3mph
Humidity: 82%   Direction: 350°N
Pressure: 30.14"   Gusts: NA
Location:  38.5569°N, 82.0376°W
Report Text: K3I2 220315Z AUTO 35003KT 10SM SCT038 SCT046 BKN049 09/06 A3014 RMK AO2
Loading
Personal Weather Stations






























Interactive Weather Map
Tropical Storm Tracking
New forecast layout! Learn more

10-Day Weather Forecast

Advertisements
Track Severe Weather on mobile